Oshkosh, NE (69154)

5:16 AM MST on January 25, 2015 (GMT -0700)
West end of Town (K0RRL) | Change Station
CLOSE
Current Station
Personal Weather Station
Location: Oshkosh, NE
Elevation: 3394 ft
Nearby Weather Stations

Elev 3394 ft 41.41 °N, 102.36 °W | Updated 26 seconds ago

Partly Cloudy
Partly Cloudy
31.1 °F
Feels Like 22 °F
N
10.3
Wind Variable Wind from NW
Gusts 14.1 mph

Today
High -- | Low -- °F
--% Chance of Precip.
Yesterday
High -- | Low -- °F
Precip. -- in
7:07 AM 4:56 PM
Waxing Crescent, 31% visible
Pressure 30.06 in
Visibility 10.0 miles
Clouds Clear
Windchill 22 °F
Dew Point 25 °F
Humidity 79%
Rainfall 0.00 in
Snow Depth Not available.
UV 0 out of 12
Pollen .20 out of 12
Air Quality Not available.
Flu Activity Not available.
METAR KOGA 251155Z AUTO 31012KT 10SM CLR 02/M03 A3006 RMK AO2 T00151035 10031 20008

More Conditions Fewer Conditions

Pressure 30.06 in
Visibility 10.0 miles
Clouds Clear
Windchill 22 °F
Dew Point 25 °F
Humidity 79%
Rainfall 0.00 in
Snow Depth Not available.
UV 0 out of 12
Pollen .20 out of 12
Air Quality Not available.
Flu Activity Not available.
METAR KOGA 251155Z AUTO 31012KT 10SM CLR 02/M03 A3006 RMK AO2 T00151035 10031 20008

More Conditions Fewer Conditions

10-Day Weather Forecast

Almanac

Astronomy

Jan. 25, 2015 Rise Set
Actual Time
Civil Twilight
Nautical Twilight
Astronomical Twilight
Moon
Length of Visible Light
Length of Day
Tomorrow will be .
, % of the Moon is Illuminated

Today's Extremes

State Highs State Lows

Community

WunderPhotos

Upload Photos

1,789,873 photos uploaded!

WunderBlogs® & News

Nearby

Air Quality

  Air Quality AQ Index Pollutant
Not available.

Snow Depth

Station Depth Elevation

Earthquake Activity

City Distance Mag. Time & Date
Minimum magnitude displayed is 2.5.

Coastal Water Temperatures

Place Temperature

Nearby Weather Stations